Folly Beach, South Carolina
Current Conditions -  °F | °C
As of 1:35 PM on Wednesday 26 Nov 2014 (Local Time) from KJZI Reporting Station
Overcast Overcast  
Wind Chill: 54°   Ceiling: 1100
Heat Index: 54°   Visibility: 10mi
Dew Point: 54°   Wind: 12mph
Humidity: 100%   Direction: 290°WNW
Pressure: 30.01"   Gusts: NA
Location:  32.66°N, 79.94°W
Report Text: KJZI 261835Z AUTO 29010KT 10SM OVC011 12/12 A3001 RMK A02 P000
Loading
Personal Weather Stations






























Interactive Weather Map New forecast layout! Learn more

10-Day Weather Forecast

Advertisements
Track Severe Weather on mobile